Time;durP1;ratioP1;P1;durP2;ratioP2;P2;SDS_P1;SDS_P2;PMS_P1;PMS_P2;Temp;Humidity;BMP_temperature;BMP_pressure;BME280_temperature;BME280_humidity;BME280_pressure;Samples;Min_cycle;Max_cycle;Signal;HPM_P1;HPM_P2
2021/08/10 00:01:33;;;;;;;13.73;2.75;;;;;;;18.77;64.18;100457.06;5057104;28;20087;-65
2021/08/10 00:04:02;;;;;;;6.13;2.72;;;;;;;18.64;64.24;100441.94;5060249;28;20044;-65
2021/08/10 00:06:28;;;;;;;12.50;2.65;;;;;;;18.60;64.16;100434.47;5058469;28;20048;-66
2021/08/10 00:08:56;;;;;;;9.32;2.70;;;;;;;18.64;64.18;100436.28;5067465;28;20131;-66
2021/08/10 00:11:22;;;;;;;4.07;2.40;;;;;;;18.76;64.22;100454.56;5053795;28;20083;-65
2021/08/10 00:13:49;;;;;;;6.07;2.15;;;;;;;18.77;64.21;100456.22;5066445;28;20548;-66
2021/08/10 00:16:16;;;;;;;9.43;2.30;;;;;;;18.74;63.99;100445.59;5060693;28;20120;-67
2021/08/10 00:18:43;;;;;;;6.78;2.25;;;;;;;18.78;63.84;100452.25;5058985;28;20128;-67
2021/08/10 00:21:10;;;;;;;5.22;2.88;;;;;;;18.76;64.08;100443.25;5062781;28;20401;-67
2021/08/10 00:23:37;;;;;;;9.00;2.53;;;;;;;18.74;63.78;100446.44;5054534;28;20123;-66
2021/08/10 00:26:04;;;;;;;12.43;3.70;;;;;;;18.78;63.80;100446.59;5056164;28;20124;-67
2021/08/10 00:28:30;;;;;;;7.00;3.13;;;;;;;18.77;63.89;100450.56;5058623;28;20136;-68
2021/08/10 00:30:58;;;;;;;5.22;2.63;;;;;;;18.70;64.30;100439.78;5050821;28;20133;-68
2021/08/10 00:33:24;;;;;;;8.50;2.60;;;;;;;18.62;64.18;100426.47;5064197;28;20508;-64
2021/08/10 00:35:51;;;;;;;7.13;2.60;;;;;;;18.63;64.21;100434.63;5057532;28;20470;-63
2021/08/10 00:38:18;;;;;;;5.00;2.17;;;;;;;18.52;64.05;100424.81;5053790;28;20048;-63
2021/08/10 00:40:45;;;;;;;7.20;3.05;;;;;;;18.58;64.31;100437.63;5067279;28;20132;-66
2021/08/10 00:43:38;;;;;;;5.68;3.00;;;;;;;18.55;64.02;100434.66;5050143;28;20128;-63
2021/08/10 00:46:08;;;;;;;7.90;3.20;;;;;;;18.50;64.44;100432.84;5066485;28;20080;-62
2021/08/10 00:48:35;;;;;;;8.57;4.13;;;;;;;18.46;64.30;100424.19;5057966;28;20152;-63
2021/08/10 00:51:08;;;;;;;12.30;3.85;;;;;;;18.38;64.93;100424.22;5047759;28;20123;-63
2021/08/10 00:53:35;;;;;;;14.23;3.78;;;;;;;18.27;64.91;100417.25;5062693;28;20084;-64
2021/08/10 00:56:04;;;;;;;9.18;3.40;;;;;;;18.21;65.58;100420.25;5053967;28;20193;-64
2021/08/10 00:58:31;;;;;;;8.38;3.42;;;;;;;17.98;65.71;100393.34;5057607;28;20131;-66
2021/08/10 01:00:58;;;;;;;9.50;3.13;;;;;;;18.12;65.62;100427.94;5050123;28;20044;-63
2021/08/10 01:03:26;;;;;;;15.90;4.07;;;;;;;18.28;65.73;100438.69;5053558;28;20045;-63
2021/08/10 01:05:52;;;;;;;9.73;4.45;;;;;;;18.29;65.80;100441.19;5063269;28;20079;-63
2021/08/10 01:08:32;;;;;;;12.98;4.28;;;;;;;18.28;65.99;100433.88;5066429;28;20051;-63
2021/08/10 01:11:39;;;;;;;15.73;4.75;;;;;;;18.18;65.85;100414.44;5052150;28;20140;-66
2021/08/10 01:14:26;;;;;;;12.43;3.72;;;;;;;18.19;65.82;100425.41;5064345;28;20156;-66
2021/08/10 01:17:00;;;;;;;12.48;4.95;;;;;;;18.08;66.39;100418.44;5067769;28;20045;-64
2021/08/10 01:20:08;;;;;;;12.20;4.45;;;;;;;17.99;67.06;100420.47;5058936;28;20048;-65
2021/08/10 01:22:38;;;;;;;9.52;3.55;;;;;;;17.93;67.17;100416.97;4992213;28;20070;-65
2021/08/10 01:25:40;;;;;;;10.38;4.80;;;;;;;17.76;67.93;100411.31;4978762;28;20124;-63
2021/08/10 01:28:26;;;;;;;8.57;4.03;;;;;;;17.71;68.26;100422.78;5043148;28;20071;-62
2021/08/10 01:31:04;;;;;;;8.90;4.72;;;;;;;17.55;68.65;100408.28;5063286;28;20052;-62
2021/08/10 01:33:37;;;;;;;9.63;3.85;;;;;;;17.51;69.11;100418.59;5054487;28;20068;-60
2021/08/10 01:36:07;;;;;;;11.18;4.47;;;;;;;17.28;69.53;100398.97;5054437;28;20052;-60
2021/08/10 01:38:35;;;;;;;;;;;;;;;17.23;71.08;100415.22;5057566;28;20489;-60
2021/08/10 01:41:02;;;;;;;12.85;5.00;;;;;;;17.08;70.38;100385.47;5050986;28;20015;-61
2021/08/10 01:43:33;;;;;;;17.73;5.55;;;;;;;17.07;70.03;100378.19;5053036;28;20505;-60
2021/08/10 01:46:00;;;;;;;11.75;5.82;;;;;;;17.00;70.25;100360.91;5051036;28;20127;-61
2021/08/10 01:48:28;;;;;;;11.30;4.47;;;;;;;17.27;70.45;100425.53;5052017;28;20049;-61
2021/08/10 01:50:57;;;;;;;9.85;4.22;;;;;;;17.26;70.17;100418.22;5059941;28;20044;-61
2021/08/10 01:53:25;;;;;;;11.48;5.25;;;;;;;17.29;70.42;100426.00;5054022;28;20102;-61
2021/08/10 01:55:57;;;;;;;9.20;4.65;;;;;;;17.37;69.57;100426.38;5065002;28;20520;-61
2021/08/10 01:58:26;;;;;;;15.02;5.10;;;;;;;17.34;69.58;100412.94;5058322;28;20162;-61
2021/08/10 02:00:57;;;;;;;12.30;5.20;;;;;;;17.40;69.62;100425.69;5061635;28;20083;-61
2021/08/10 02:03:26;;;;;;;12.52;5.25;;;;;;;17.45;69.55;100419.91;5054078;28;20124;-61
2021/08/10 02:05:54;;;;;;;11.50;5.47;;;;;;;17.43;69.18;100408.09;5064047;28;20041;-61
2021/08/10 02:08:22;;;;;;;12.40;5.68;;;;;;;17.52;68.93;100417.44;5062336;28;20076;-61
2021/08/10 02:10:51;;;;;;;11.05;4.90;;;;;;;17.54;69.27;100412.28;5056026;28;20532;-61
2021/08/10 02:13:18;;;;;;;16.17;4.65;;;;;;;17.45;68.86;100405.78;5070698;28;20041;-61
2021/08/10 02:15:48;;;;;;;11.23;4.18;;;;;;;17.47;68.82;100407.13;5053778;28;20156;-64
2021/08/10 02:18:17;;;;;;;8.93;5.00;;;;;;;17.52;68.60;100411.78;5055383;28;20041;-64
2021/08/10 02:20:47;;;;;;;18.45;6.22;;;;;;;17.45;69.27;100408.63;5055094;28;20084;-63
2021/08/10 02:23:20;;;;;;;15.43;5.00;;;;;;;17.46;69.03;100408.28;5062187;28;20048;-64
2021/08/10 02:25:50;;;;;;;16.70;5.57;;;;;;;17.43;69.43;100408.09;5055146;28;20128;-61
2021/08/10 02:28:18;;;;;;;19.23;5.47;;;;;;;17.38;69.24;100408.28;5063923;28;20556;-61
2021/08/10 02:30:53;;;;;;;13.15;5.47;;;;;;;17.31;69.95;100411.59;5060320;28;20132;-62
2021/08/10 02:33:23;;;;;;;11.30;5.15;;;;;;;17.29;70.12;100408.25;5065018;28;20052;-62
2021/08/10 02:35:55;;;;;;;11.63;4.75;;;;;;;17.20;69.80;100399.78;5061286;28;20563;-62
2021/08/10 02:38:25;;;;;;;15.60;5.40;;;;;;;17.24;69.71;100400.78;5059074;28;20083;-62
2021/08/10 02:40:58;;;;;;;10.70;4.85;;;;;;;17.38;69.76;100405.47;5061341;28;20127;-62
2021/08/10 02:43:28;;;;;;;12.90;6.30;;;;;;;17.40;69.16;100403.13;5058644;28;20083;-63
2021/08/10 02:45:55;;;;;;;15.18;6.78;;;;;;;17.52;68.93;100406.97;5059181;28;20077;-61
2021/08/10 02:48:22;;;;;;;12.95;5.30;;;;;;;17.60;68.58;100412.94;5073217;28;20101;-61
2021/08/10 02:50:49;;;;;;;16.67;5.40;;;;;;;17.55;68.66;100394.19;5053200;28;20080;-61
2021/08/10 02:53:16;;;;;;;11.05;5.75;;;;;;;17.68;68.67;100415.78;5058114;28;20124;-61
2021/08/10 02:55:53;;;;;;;20.45;7.57;;;;;;;17.55;68.48;100394.19;5061117;28;20080;-62
2021/08/10 02:58:25;;;;;;;18.42;6.60;;;;;;;17.61;68.09;100392.84;5052262;28;20511;-62
2021/08/10 03:01:04;;;;;;;13.98;6.05;;;;;;;17.72;68.03;100405.47;5056503;28;20045;-62
2021/08/10 03:03:32;;;;;;;17.80;6.25;;;;;;;17.79;68.06;100412.66;5070773;28;20048;-62
2021/08/10 03:06:03;;;;;;;13.93;5.68;;;;;;;17.68;67.76;100398.84;5060999;28;20539;-62
2021/08/10 03:08:35;;;;;;;13.90;6.18;;;;;;;17.68;68.21;100396.00;5061642;28;20080;-62
2021/08/10 03:11:04;;;;;;;15.05;5.88;;;;;;;17.69;68.35;100406.13;5052958;28;20074;-62
2021/08/10 03:13:35;;;;;;;12.88;5.07;;;;;;;17.46;68.51;100380.03;5055819;28;20072;-62
2021/08/10 03:16:05;;;;;;;13.95;5.35;;;;;;;17.59;68.27;100405.63;5060363;28;20472;-62
2021/08/10 03:18:36;;;;;;;15.57;5.97;;;;;;;17.56;68.64;100412.78;5053752;28;20059;-63
2021/08/10 03:21:05;;;;;;;16.95;6.35;;;;;;;17.45;68.63;100397.31;5062634;28;20131;-63
2021/08/10 03:23:34;;;;;;;17.02;6.20;;;;;;;17.56;68.70;100409.13;5057402;28;20064;-62
2021/08/10 03:26:03;;;;;;;13.88;6.82;;;;;;;17.62;68.54;100417.09;5049107;28;20069;-62
2021/08/10 03:28:32;;;;;;;12.35;5.70;;;;;;;17.53;68.30;100396.50;5054389;28;20140;-67
2021/08/10 03:31:00;;;;;;;12.63;6.47;;;;;;;17.59;67.99;100409.28;5080792;28;20132;-68
2021/08/10 03:33:31;;;;;;;13.88;6.35;;;;;;;17.62;68.18;100411.44;5055342;28;20041;-68
2021/08/10 03:35:59;;;;;;;11.95;5.68;;;;;;;17.59;68.46;100406.47;5060280;28;20075;-67
2021/08/10 03:38:26;;;;;;;13.23;7.63;;;;;;;17.66;68.13;100414.44;5053201;28;20063;-66
2021/08/10 03:40:53;;;;;;;12.00;6.28;;;;;;;17.56;67.95;100395.84;5061481;28;20127;-66
2021/08/10 03:43:21;;;;;;;16.05;6.57;;;;;;;17.56;68.55;100412.78;5069264;28;20122;-65
2021/08/10 03:45:52;;;;;;;11.80;5.53;;;;;;;17.51;68.40;100407.31;5067535;28;20131;-65
2021/08/10 03:48:21;;;;;;;15.77;6.13;;;;;;;17.46;68.47;100407.44;5053289;28;20041;-64
2021/08/10 03:50:53;;;;;;;11.23;5.53;;;;;;;17.35;68.72;100403.28;5069786;28;22319;-65
2021/08/10 03:53:21;;;;;;;16.75;6.20;;;;;;;17.18;68.63;100390.81;5064403;28;20140;-62
2021/08/10 03:55:49;;;;;;;12.50;5.82;;;;;;;17.34;68.80;100422.22;5058829;28;20481;-63
2021/08/10 03:58:21;;;;;;;10.85;5.57;;;;;;;17.27;68.92;100417.06;5058785;28;20091;-64
2021/08/10 04:00:49;;;;;;;11.68;4.88;;;;;;;17.14;69.22;100412.38;5064097;28;20560;-59
2021/08/10 04:03:17;;;;;;;13.40;5.95;;;;;;;17.07;69.40;100411.22;5059859;28;20584;-61
2021/08/10 04:05:46;;;;;;;9.23;5.28;;;;;;;16.99;69.75;100402.41;5063084;28;20442;-60
2021/08/10 04:08:15;;;;;;;21.15;7.57;;;;;;;16.90;69.86;100400.69;5057793;28;20063;-62
2021/08/10 04:10:47;;;;;;;17.20;6.03;;;;;;;16.78;69.68;100393.66;5055121;28;20477;-62
2021/08/10 04:13:15;;;;;;;11.23;5.63;;;;;;;16.77;70.10;100394.00;5057152;28;20131;-66
2021/08/10 04:15:46;;;;;;;10.73;5.63;;;;;;;16.86;69.70;100410.97;5064445;28;20139;-62
2021/08/10 04:18:16;;;;;;;13.13;5.80;;;;;;;16.92;69.23;100409.66;5051699;28;20044;-61
2021/08/10 04:20:51;;;;;;;11.25;6.15;;;;;;;16.89;69.24;100408.34;5064135;28;20469;-62
2021/08/10 04:23:19;;;;;;;15.80;6.68;;;;;;;16.98;68.95;100412.00;5055959;28;20228;-63
2021/08/10 04:25:46;;;;;;;10.38;5.63;;;;;;;17.03;68.76;100420.31;5057859;28;20064;-60
2021/08/10 04:28:13;;;;;;;12.27;6.20;;;;;;;17.07;68.73;100417.69;5056946;28;20073;-60
2021/08/10 04:30:41;;;;;;;10.18;5.60;;;;;;;17.17;68.77;100416.53;5052955;28;20135;-60
2021/08/10 04:33:09;;;;;;;13.48;6.20;;;;;;;17.07;68.76;100406.38;5057302;28;20160;-60
2021/08/10 04:35:36;;;;;;;15.68;6.72;;;;;;;17.14;68.91;100429.31;5056081;28;20491;-60
2021/08/10 04:38:03;;;;;;;12.15;5.93;;;;;;;17.12;68.71;100423.16;5063427;28;20068;-60
2021/08/10 04:40:31;;;;;;;14.43;6.05;;;;;;;17.12;68.54;100431.63;5058225;28;20076;-60
2021/08/10 04:42:59;;;;;;;18.55;6.38;;;;;;;17.14;68.61;100423.66;5057896;28;20072;-60
2021/08/10 04:45:26;;;;;;;13.48;6.22;;;;;;;17.16;68.41;100432.66;5057093;28;20123;-60
2021/08/10 04:47:53;;;;;;;15.00;5.80;;;;;;;17.19;68.54;100431.97;5065122;28;20139;-60
2021/08/10 04:50:21;;;;;;;14.38;6.85;;;;;;;17.21;68.42;100432.47;5052010;28;20127;-60
2021/08/10 04:52:48;;;;;;;12.07;5.40;;;;;;;17.18;68.31;100430.31;5051223;28;20144;-60
2021/08/10 04:55:15;;;;;;;14.98;6.30;;;;;;;17.22;68.33;100431.31;5051679;28;20431;-60
2021/08/10 04:57:42;;;;;;;14.75;6.30;;;;;;;17.31;68.22;100444.63;5066144;28;20127;-60
2021/08/10 05:00:09;;;;;;;12.63;5.88;;;;;;;17.29;68.46;100442.94;5043603;28;20087;-60
2021/08/10 05:02:37;;;;;;;13.88;6.18;;;;;;;17.25;68.13;100425.00;5055581;28;20102;-64
2021/08/10 05:05:06;;;;;;;12.80;6.68;;;;;;;17.27;68.44;100430.34;5054376;28;20042;-68
2021/08/10 05:07:32;;;;;;;10.77;5.47;;;;;;;17.27;68.46;100433.16;5035709;28;20072;-67
2021/08/10 05:10:00;;;;;;;14.90;6.57;;;;;;;17.29;68.11;100440.13;5037020;28;20051;-69
2021/08/10 05:12:27;;;;;;;15.93;6.18;;;;;;;17.14;68.43;100423.66;5054887;28;20144;-71
2021/08/10 05:14:53;;;;;;;12.27;6.45;;;;;;;17.28;68.46;100451.75;5057653;28;20040;-63
2021/08/10 05:17:20;;;;;;;14.63;6.15;;;;;;;17.25;68.21;100436.31;5050246;28;20172;-60
2021/08/10 05:19:47;;;;;;;14.68;6.63;;;;;;;17.14;68.39;100420.84;5052836;28;20068;-61
2021/08/10 05:22:14;;;;;;;13.60;4.80;;;;;;;17.17;68.49;100439.94;5055869;28;20147;-62
2021/08/10 05:24:41;;;;;;;13.68;5.70;;;;;;;17.22;68.58;100448.25;5055960;28;20131;-61
2021/08/10 05:27:08;;;;;;;11.88;6.32;;;;;;;17.25;68.39;100446.75;5061042;28;20041;-62
2021/08/10 05:29:35;;;;;;;17.83;6.68;;;;;;;17.23;68.73;100449.06;5060091;28;20087;-67
2021/08/10 05:32:02;;;;;;;15.82;6.18;;;;;;;17.24;68.51;100448.75;5057428;28;20139;-68
2021/08/10 05:34:28;;;;;;;15.75;6.35;;;;;;;17.19;68.23;100443.25;5054229;28;20099;-68
2021/08/10 05:36:55;;;;;;;11.40;6.07;;;;;;;17.24;68.58;100457.22;5066293;28;20151;-68
2021/08/10 05:39:22;;;;;;;12.23;6.63;;;;;;;17.12;68.47;100437.25;5063299;28;20136;-67
2021/08/10 05:41:49;;;;;;;16.13;6.32;;;;;;;17.20;68.14;100461.03;5037689;28;20135;-67
2021/08/10 05:44:16;;;;;;;13.00;6.78;;;;;;;17.09;68.40;100432.28;5051634;28;20159;-66
2021/08/10 05:46:43;;;;;;;13.23;6.57;;;;;;;17.20;68.38;100453.41;5054944;28;20127;-69
2021/08/10 05:49:10;;;;;;;12.95;6.55;;;;;;;17.22;68.13;100453.06;5061226;28;20484;-66
2021/08/10 05:51:37;;;;;;;14.25;6.25;;;;;;;17.22;68.31;100459.53;5059882;28;20048;-66
2021/08/10 05:54:04;;;;;;;15.27;7.57;;;;;;;17.24;68.04;100457.22;5067784;28;20600;-66
2021/08/10 05:56:31;;;;;;;15.02;6.75;;;;;;;17.21;68.21;100448.59;5064895;28;20571;-66
2021/08/10 05:58:58;;;;;;;13.80;6.18;;;;;;;17.18;68.07;100440.78;5056094;28;20080;-67
2021/08/10 06:01:26;;;;;;;9.95;5.57;;;;;;;17.19;68.39;100448.06;5048690;28;20534;-67
2021/08/10 06:03:53;;;;;;;13.10;5.63;;;;;;;17.22;68.48;100448.25;5067590;28;20515;-68
2021/08/10 06:06:20;;;;;;;12.25;6.07;;;;;;;17.24;68.54;100451.59;5060610;28;20167;-67
2021/08/10 06:08:47;;;;;;;13.27;6.13;;;;;;;17.22;68.67;100453.88;5055852;28;20037;-66
2021/08/10 06:11:14;;;;;;;12.95;5.68;;;;;;;17.28;68.61;100446.94;5056515;28;21017;-67
2021/08/10 06:13:40;;;;;;;15.27;6.18;;;;;;;17.40;68.82;100448.28;5075790;28;20476;-67
2021/08/10 06:16:07;;;;;;;13.75;7.60;;;;;;;17.51;68.78;100446.84;5061078;28;20048;-68
2021/08/10 06:18:34;;;;;;;14.35;6.20;;;;;;;17.64;68.38;100443.03;5052878;28;20049;-66
2021/08/10 06:21:01;;;;;;;11.25;6.65;;;;;;;17.82;68.38;100443.91;5055216;28;20148;-65
2021/08/10 06:23:28;;;;;;;14.85;7.22;;;;;;;18.03;67.90;100449.69;5048820;28;20055;-64
2021/08/10 06:25:55;;;;;;;11.98;6.72;;;;;;;18.16;67.53;100437.38;5055977;28;20040;-64
2021/08/10 06:28:21;;;;;;;10.63;6.13;;;;;;;18.22;67.34;100453.03;5054246;28;20152;-64
2021/08/10 06:30:48;;;;;;;12.98;5.40;;;;;;;17.98;67.66;100419.63;5062030;28;20120;-64
2021/08/10 06:33:15;;;;;;;8.63;5.13;;;;;;;18.14;67.18;100439.72;5073385;28;20476;-64
2021/08/10 06:35:42;;;;;;;10.70;5.57;;;;;;;18.20;67.43;100446.03;5073232;28;20132;-64
2021/08/10 06:38:09;;;;;;;14.05;5.18;;;;;;;18.51;67.07;100474.06;5074181;28;20377;-64
2021/08/10 06:40:36;;;;;;;8.98;4.65;;;;;;;18.65;66.55;100477.53;5074114;28;20552;-64
2021/08/10 06:43:03;;;;;;;10.90;5.78;;;;;;;18.82;66.20;100458.88;5072974;28;20084;-64
2021/08/10 06:45:30;;;;;;;10.82;5.80;;;;;;;19.05;65.97;100477.25;5074411;28;20433;-64
2021/08/10 06:47:57;;;;;;;14.27;5.88;;;;;;;19.22;65.52;100475.53;5074481;28;20049;-64
2021/08/10 06:50:23;;;;;;;10.20;5.80;;;;;;;19.47;64.98;100477.38;5063796;28;20048;-64
2021/08/10 06:52:50;;;;;;;12.18;6.03;;;;;;;19.65;65.01;100467.59;5089254;28;20078;-65
2021/08/10 06:55:18;;;;;;;11.45;5.82;;;;;;;19.90;64.32;100467.78;5074181;28;20076;-65
2021/08/10 06:57:45;;;;;;;11.15;6.18;;;;;;;20.10;63.83;100466.94;5073383;28;20556;-65
2021/08/10 07:00:12;;;;;;;15.75;6.53;;;;;;;20.16;63.47;100449.72;5073540;28;20123;-65
2021/08/10 07:02:39;;;;;;;9.63;5.35;;;;;;;20.46;63.28;100468.25;5074478;28;20080;-65
2021/08/10 07:05:07;;;;;;;12.27;5.38;;;;;;;20.70;62.90;100472.38;5072826;28;20037;-65
2021/08/10 07:07:33;;;;;;;8.23;5.30;;;;;;;20.97;62.27;100473.72;5059980;28;20128;-64
2021/08/10 07:10:01;;;;;;;11.10;6.53;;;;;;;21.17;61.79;100469.97;5054178;28;20045;-65
2021/08/10 07:12:27;;;;;;;13.50;6.45;;;;;;;21.24;61.60;100463.69;5053868;28;20580;-65
2021/08/10 07:14:54;;;;;;;12.70;6.20;;;;;;;21.48;61.24;100465.72;5054294;28;20456;-66
2021/08/10 07:17:21;;;;;;;10.68;6.22;;;;;;;21.65;60.69;100476.84;5054097;28;20056;-66
2021/08/10 07:19:48;;;;;;;16.10;7.30;;;;;;;21.86;60.46;100476.66;5070684;28;20128;-65
2021/08/10 07:22:15;;;;;;;10.43;6.43;;;;;;;21.99;59.83;100469.78;5073738;28;20127;-65
2021/08/10 07:24:59;;;;;;;11.68;6.78;;;;;;;22.27;59.53;100473.84;5054855;28;20047;-64
2021/08/10 07:27:26;;;;;;;13.43;7.40;;;;;;;22.53;58.81;100488.44;5053436;28;20125;-64
2021/08/10 07:29:53;;;;;;;17.35;8.55;;;;;;;22.66;58.53;100470.09;5053482;28;20091;-64
2021/08/10 07:32:20;;;;;;;14.35;7.32;;;;;;;22.79;58.25;100482.25;5071763;28;20067;-64
2021/08/10 07:34:48;;;;;;;11.65;6.60;;;;;;;22.91;57.88;100475.66;5072554;28;20114;-65
2021/08/10 07:37:15;;;;;;;10.93;6.15;;;;;;;23.19;57.37;100487.00;5073803;28;20044;-65
2021/08/10 07:39:41;;;;;;;15.38;9.52;;;;;;;23.40;56.46;100496.06;5073481;28;20080;-64
2021/08/10 07:42:11;;;;;;;;;;;;;;;23.39;57.96;100480.19;5054681;28;20140;-65
2021/08/10 07:44:38;;;;;;;13.25;7.50;;;;;;;23.76;55.79;100491.28;5053407;28;20019;-65
2021/08/10 07:47:06;;;;;;;12.23;6.70;;;;;;;24.01;55.52;100485.31;5053313;28;20460;-64
2021/08/10 07:49:37;;;;;;;13.50;6.60;;;;;;;24.18;54.53;100487.72;5062488;28;20520;-64
2021/08/10 07:52:04;;;;;;;12.32;6.25;;;;;;;24.32;54.45;100485.16;5073719;28;20079;-64
2021/08/10 07:54:31;;;;;;;11.82;6.40;;;;;;;24.43;53.93;100481.75;5072919;28;20127;-64
2021/08/10 07:56:59;;;;;;;14.00;7.05;;;;;;;24.62;53.56;100490.28;5071670;28;20075;-65
2021/08/10 07:59:26;;;;;;;13.77;6.65;;;;;;;24.74;52.82;100497.84;5053154;28;20098;-64
2021/08/10 08:01:55;;;;;;;12.75;6.72;;;;;;;24.81;52.91;100498.00;5053195;28;20554;-65
2021/08/10 08:04:22;;;;;;;12.02;5.68;;;;;;;25.00;52.54;100497.13;5053402;28;20060;-64
2021/08/10 08:06:49;;;;;;;9.55;6.55;;;;;;;25.15;52.35;100501.09;5037034;28;20176;-64
2021/08/10 08:09:16;;;;;;;9.82;5.55;;;;;;;25.34;51.66;100498.16;5087461;28;20076;-64
2021/08/10 08:11:43;;;;;;;11.80;6.03;;;;;;;25.57;50.88;100503.84;5071542;28;20115;-65
2021/08/10 08:14:10;;;;;;;10.00;6.32;;;;;;;25.82;50.52;100506.31;5069875;28;20135;-64
2021/08/10 08:16:37;;;;;;;14.20;6.13;;;;;;;25.96;50.10;100506.53;5052690;28;20045;-65
2021/08/10 08:19:04;;;;;;;13.00;6.80;;;;;;;26.18;50.03;100514.19;5066914;28;20664;-65
2021/08/10 08:21:31;;;;;;;13.77;7.43;;;;;;;26.39;49.19;100513.66;5073034;28;20254;-65
2021/08/10 08:23:58;;;;;;;15.27;6.32;;;;;;;26.41;48.79;100505.50;5071480;28;20080;-65
2021/08/10 08:26:25;;;;;;;18.67;7.40;;;;;;;26.67;48.28;100513.22;5071598;28;20086;-65
2021/08/10 08:28:52;;;;;;;13.13;7.50;;;;;;;26.80;47.97;100515.78;5072648;28;20135;-65
2021/08/10 08:31:19;;;;;;;12.45;7.10;;;;;;;26.99;47.89;100517.66;5071187;28;20052;-65
2021/08/10 08:33:46;;;;;;;16.73;7.72;;;;;;;27.13;47.42;100518.63;5071686;28;20045;-65
2021/08/10 08:36:12;;;;;;;13.93;7.47;;;;;;;27.24;47.17;100517.91;5072222;28;20131;-65
2021/08/10 08:38:39;;;;;;;12.25;7.03;;;;;;;27.35;46.75;100515.97;5072721;28;20072;-65
2021/08/10 08:41:06;;;;;;;14.77;7.18;;;;;;;27.61;46.53;100523.56;5071427;28;20231;-65
2021/08/10 08:43:33;;;;;;;20.58;6.88;;;;;;;27.79;45.90;100518.81;5072416;28;20080;-65
2021/08/10 08:46:00;;;;;;;13.30;7.50;;;;;;;27.99;45.44;100502.13;5072219;28;20052;-66
2021/08/10 08:48:30;;;;;;;11.32;6.53;;;;;;;28.33;44.58;100504.78;5066575;28;20072;-66
2021/08/10 08:51:00;;;;;;;13.45;7.13;;;;;;;28.57;44.29;100504.09;5052310;28;20056;-66
2021/08/10 08:53:27;;;;;;;17.15;6.80;;;;;;;28.73;44.13;100500.03;5051839;28;20144;-66
2021/08/10 08:55:54;;;;;;;16.95;6.38;;;;;;;28.89;43.22;100503.38;5052040;28;20135;-66
2021/08/10 08:58:21;;;;;;;12.32;5.70;;;;;;;29.11;43.19;100503.44;5052213;28;20136;-66
2021/08/10 09:00:47;;;;;;;12.00;5.60;;;;;;;29.21;42.77;100520.69;5052346;28;20120;-66
2021/08/10 09:03:14;;;;;;;12.90;6.10;;;;;;;29.21;42.62;100502.63;5071361;28;20045;-66
2021/08/10 09:05:47;;;;;;;9.23;5.43;;;;;;;29.13;42.79;100467.31;5053969;28;20381;-66
2021/08/10 09:08:27;;;;;;;11.52;4.90;;;;;;;29.57;42.30;100496.88;5034452;28;20049;-66
2021/08/10 09:11:03;;;;;;;10.32;5.13;;;;;;;29.65;41.99;100501.44;5052300;28;20171;-66
2021/08/10 09:13:31;;;;;;;9.55;4.03;;;;;;;29.84;40.87;100503.84;5051565;28;20048;-66
2021/08/10 09:16:00;;;;;;;13.45;5.07;;;;;;;29.95;41.08;100483.69;5051892;28;20083;-65
2021/08/10 09:18:27;;;;;;;;;;;;;;;29.83;42.95;100495.66;5034852;28;20183;-65
2021/08/10 09:21:06;;;;;;;10.13;4.70;;;;;;;30.11;41.24;100501.31;5063574;28;20015;-65
2021/08/10 09:23:42;;;;;;;11.98;5.13;;;;;;;30.26;40.83;100502.16;5061736;28;20132;-65
2021/08/10 09:26:10;;;;;;;8.85;4.68;;;;;;;30.47;40.32;100504.13;5070063;28;20090;-65
2021/08/10 09:28:37;;;;;;;7.43;4.18;;;;;;;30.57;39.75;100503.25;5075850;28;20087;-65
2021/08/10 09:31:42;;;;;;;11.05;4.22;;;;;;;30.68;40.01;100508.97;5091467;28;20144;-65
2021/08/10 09:34:20;;;;;;;8.13;5.00;;;;;;;30.65;39.51;100504.03;5074788;28;20557;-65
2021/08/10 09:36:47;;;;;;;9.30;4.93;;;;;;;30.65;38.97;100504.03;5074540;28;20080;-65
2021/08/10 09:39:15;;;;;;;11.07;6.18;;;;;;;30.67;39.91;100518.84;5074693;28;20136;-65
2021/08/10 09:42:05;;;;;;;14.43;6.35;;;;;;;30.67;39.58;100508.16;5075709;28;20314;-65
2021/08/10 09:44:32;;;;;;;13.60;6.95;;;;;;;30.80;39.13;100522.09;5055528;28;20114;-65
2021/08/10 09:46:59;;;;;;;13.13;7.22;;;;;;;30.79;39.12;100498.22;5055379;28;20080;-65
2021/08/10 09:49:43;;;;;;;12.93;6.00;;;;;;;30.99;39.48;100512.13;5055435;28;20596;-65
2021/08/10 09:52:23;;;;;;;12.02;6.68;;;;;;;31.25;39.47;100523.06;5076690;28;20052;-66
2021/08/10 09:54:55;;;;;;;13.50;7.43;;;;;;;31.41;38.59;100511.00;5055167;28;20057;-66
2021/08/10 09:57:22;;;;;;;10.38;6.45;;;;;;;31.51;38.17;100520.81;5055901;28;20084;-65
2021/08/10 09:59:48;;;;;;;19.02;7.68;;;;;;;31.52;38.32;100528.22;5038048;28;20076;-65
2021/08/10 10:02:20;;;;;;;14.95;6.45;;;;;;;31.68;38.19;100514.06;5055408;28;20091;-65
2021/08/10 10:04:57;;;;;;;10.88;5.60;;;;;;;32.15;37.66;100511.56;5055061;28;20048;-65
2021/08/10 10:07:24;;;;;;;11.70;5.70;;;;;;;32.64;36.96;100512.22;5053994;28;20124;-65
2021/08/10 10:09:52;;;;;;;11.80;6.97;;;;;;;32.96;36.05;100516.78;5072271;28;20052;-65
2021/08/10 10:12:22;;;;;;;9.35;6.07;;;;;;;33.21;36.14;100511.41;5075028;28;20075;-65
2021/08/10 10:14:50;;;;;;;14.52;6.00;;;;;;;33.45;35.67;100508.56;5072987;28;20040;-65
2021/08/10 10:17:17;;;;;;;9.25;5.15;;;;;;;33.58;35.40;100506.72;5074158;28;20433;-65
2021/08/10 10:19:45;;;;;;;10.75;5.20;;;;;;;33.93;34.93;100516.00;5057281;28;20080;-65
2021/08/10 10:22:21;;;;;;;12.20;6.27;;;;;;;33.98;34.91;100512.59;5074804;28;20095;-65
2021/08/10 10:24:50;;;;;;;14.70;5.75;;;;;;;33.93;34.82;100504.44;5073679;28;20076;-65
2021/08/10 10:27:18;;;;;;;12.00;5.88;;;;;;;34.16;34.57;100513.13;5057490;28;20079;-65
2021/08/10 10:29:48;;;;;;;16.08;5.95;;;;;;;34.28;34.39;100514.53;5074339;28;20048;-65
2021/08/10 10:32:18;;;;;;;15.00;5.20;;;;;;;34.01;34.27;100459.59;5073108;28;20083;-65
2021/08/10 10:34:46;;;;;;;11.23;6.00;;;;;;;34.22;34.05;100512.59;5056940;28;20087;-65
2021/08/10 10:37:23;;;;;;;14.05;6.90;;;;;;;34.04;34.48;100504.25;5073771;28;20040;-65
2021/08/10 10:39:59;;;;;;;13.35;5.57;;;;;;;34.27;34.26;100506.28;5074562;28;20048;-65
2021/08/10 10:42:26;;;;;;;8.27;4.93;;;;;;;34.31;33.85;100496.25;5074618;28;20091;-64
2021/08/10 10:44:53;;;;;;;9.80;5.68;;;;;;;34.49;33.60;100507.47;5073672;28;20083;-65
2021/08/10 10:47:20;;;;;;;10.93;5.60;;;;;;;34.57;33.39;100520.59;5073483;28;20135;-65
2021/08/10 10:50:07;;;;;;;9.40;5.00;;;;;;;34.67;33.18;100524.53;5073593;28;20045;-64
2021/08/10 10:52:34;;;;;;;16.77;5.43;;;;;;;34.72;33.41;100520.28;5074745;28;20040;-65
2021/08/10 10:55:05;;;;;;;12.30;5.25;;;;;;;34.76;33.08;100503.59;5074017;28;20052;-66
2021/08/10 10:57:33;;;;;;;17.83;5.05;;;;;;;34.84;32.87;100520.41;5088880;28;20083;-65
2021/08/10 11:00:11;;;;;;;11.68;5.60;;;;;;;34.83;33.26;100506.34;5074297;28;20494;-65
2021/08/10 11:02:39;;;;;;;;;;;;;;;34.52;35.03;100506.59;5073885;28;20048;-65
2021/08/10 11:05:06;;;;;;;10.48;4.95;;;;;;;35.04;33.29;100514.56;5070342;28;19927;-65
2021/08/10 11:07:38;;;;;;;14.68;5.25;;;;;;;35.44;32.43;100520.25;5072925;28;20491;-65
2021/08/10 11:10:33;;;;;;;13.02;4.85;;;;;;;35.48;32.43;100503.53;5074044;28;20079;-65
2021/08/10 11:13:01;;;;;;;10.95;5.25;;;;;;;35.45;31.47;100483.31;5073149;28;20075;-65
2021/08/10 11:15:46;;;;;;;13.93;4.97;;;;;;;35.45;31.93;100501.53;5089452;28;20078;-65
2021/08/10 11:18:13;;;;;;;10.32;4.30;;;;;;;35.34;31.58;100503.91;5073852;28;20135;-65
2021/08/10 11:20:46;;;;;;;7.80;4.40;;;;;;;35.32;31.58;100484.06;5072744;28;20174;-65
2021/08/10 11:23:19;;;;;;;8.32;4.38;;;;;;;35.50;31.19;100498.13;5073846;28;20128;-65
2021/08/10 11:25:48;;;;;;;7.97;4.07;;;;;;;35.61;31.54;100492.06;5072833;28;20136;-65
2021/08/10 11:28:28;;;;;;;6.68;4.15;;;;;;;35.71;31.49;100487.25;5072772;28;20203;-66
2021/08/10 11:31:09;;;;;;;8.93;3.55;;;;;;;35.92;30.79;100475.03;5073672;28;20301;-65